createdAt,value
2023-03-04T00:00:46.170Z,92.33
2023-03-04T00:03:15.656Z,93.67
2023-03-04T00:05:42.358Z,82.50
2023-03-04T00:08:09.235Z,94.17
2023-03-04T00:10:35.835Z,93.23
2023-03-04T00:13:02.358Z,94.45
2023-03-04T00:15:29.206Z,98.50
2023-03-04T00:17:55.946Z,95.57
2023-03-04T00:20:22.510Z,104.03
2023-03-04T00:22:49.062Z,86.50
2023-03-04T00:25:16.325Z,92.53
2023-03-04T00:27:42.839Z,81.20
2023-03-04T00:30:09.781Z,80.73
2023-03-04T00:32:36.633Z,82.37
2023-03-04T00:35:03.945Z,88.00
2023-03-04T00:37:30.573Z,81.10
2023-03-04T00:39:57.159Z,85.23
2023-03-04T00:42:24.200Z,98.57
2023-03-04T00:44:51.430Z,87.00
2023-03-04T00:47:17.945Z,95.67
2023-03-04T00:49:44.486Z,72.43
2023-03-04T00:52:10.985Z,87.27
2023-03-04T00:54:37.462Z,63.57
2023-03-04T00:57:03.997Z,78.27
2023-03-04T00:59:30.525Z,81.60
2023-03-04T01:01:57.254Z,81.97
2023-03-04T01:04:23.844Z,86.03
2023-03-04T01:06:50.439Z,92.77
2023-03-04T01:09:17.055Z,83.13
2023-03-04T01:11:43.624Z,82.80
2023-03-04T01:14:11.129Z,95.00
2023-03-04T01:16:37.713Z,87.67
2023-03-04T01:19:04.230Z,80.37
2023-03-04T01:21:30.878Z,92.47
2023-03-04T01:23:57.391Z,80.77
2023-03-04T01:26:23.914Z,85.07
2023-03-04T01:28:50.373Z,80.33
2023-03-04T01:31:17.165Z,81.37
2023-03-04T01:33:44.375Z,87.37
2023-03-04T01:36:11.068Z,73.40
2023-03-04T01:38:37.613Z,71.40
2023-03-04T01:41:04.393Z,77.57
2023-03-04T01:43:31.383Z,65.20
2023-03-04T01:45:58.777Z,67.10
2023-03-04T01:48:27.390Z,76.50
2023-03-04T01:50:53.943Z,75.97
2023-03-04T01:53:21.998Z,82.40
2023-03-04T01:55:49.361Z,77.10
2023-03-04T01:58:15.970Z,62.90
2023-03-04T02:00:42.636Z,63.97
2023-03-04T02:03:15.229Z,67.33
2023-03-04T02:05:44.074Z,83.57
2023-03-04T02:08:12.061Z,91.23
2023-03-04T02:10:38.893Z,62.70
2023-03-04T02:13:06.323Z,68.83
2023-03-04T02:15:32.853Z,77.13
2023-03-04T02:17:59.909Z,65.17
2023-03-04T02:20:45.718Z,79.33
2023-03-04T02:23:17.189Z,67.27
2023-03-04T02:25:55.072Z,56.60
2023-03-04T02:28:21.903Z,55.17
2023-03-04T02:30:48.459Z,57.90
2023-03-04T02:33:17.003Z,69.53
2023-03-04T02:35:43.801Z,52.33
2023-03-04T02:38:11.359Z,52.00
2023-03-04T02:40:39.354Z,58.80
2023-03-04T02:43:06.575Z,58.70
2023-03-04T02:45:47.518Z,77.97
2023-03-04T02:48:17.701Z,72.23
2023-03-04T02:50:46.351Z,61.30
2023-03-04T02:53:13.038Z,69.40
2023-03-04T02:55:39.621Z,60.07
2023-03-04T02:58:06.695Z,65.80
2023-03-04T03:00:33.495Z,64.17
2023-03-04T03:03:00.229Z,59.57
2023-03-04T03:05:27.720Z,63.27
2023-03-04T03:07:55.345Z,78.37
2023-03-04T03:10:22.607Z,54.60
2023-03-04T03:12:49.269Z,63.20
2023-03-04T03:15:16.313Z,51.60
2023-03-04T03:17:43.091Z,56.80
2023-03-04T03:20:11.815Z,59.47
2023-03-04T03:22:38.673Z,66.73
2023-03-04T03:25:05.591Z,50.50
2023-03-04T03:27:32.190Z,69.53
2023-03-04T03:29:59.102Z,63.93
2023-03-04T03:32:25.656Z,63.87
2023-03-04T03:34:52.390Z,48.93
2023-03-04T03:37:19.051Z,56.90
2023-03-04T03:39:45.515Z,50.60
2023-03-04T03:42:11.955Z,63.70
2023-03-04T03:44:38.632Z,61.93
2023-03-04T03:47:05.308Z,89.70
2023-03-04T03:49:31.854Z,55.87
2023-03-04T03:51:58.352Z,56.33
2023-03-04T03:54:25.063Z,56.60
2023-03-04T03:56:51.677Z,45.33
2023-03-04T03:59:18.260Z,54.17
2023-03-04T04:01:44.943Z,44.67
2023-03-04T04:04:11.747Z,57.43
2023-03-04T04:06:38.270Z,58.43
2023-03-04T04:09:05.041Z,49.80
2023-03-04T04:11:31.713Z,47.33
2023-03-04T04:13:58.335Z,64.53
2023-03-04T04:16:25.036Z,72.23
2023-03-04T04:18:51.728Z,73.03
2023-03-04T04:21:18.317Z,52.57
2023-03-04T04:23:44.970Z,62.50
2023-03-04T04:26:11.609Z,53.80
2023-03-04T04:28:38.199Z,44.43
2023-03-04T04:31:07.533Z,55.77
2023-03-04T04:33:34.452Z,68.03
2023-03-04T04:36:01.416Z,55.70
2023-03-04T04:38:28.041Z,55.10
2023-03-04T04:40:56.444Z,42.53
2023-03-04T04:43:22.968Z,47.40
2023-03-04T04:45:49.487Z,44.80
2023-03-04T04:48:15.983Z,48.63
2023-03-04T04:50:42.667Z,62.17
2023-03-04T04:53:11.929Z,52.70
2023-03-04T04:55:38.487Z,52.10
2023-03-04T04:58:06.342Z,44.43
2023-03-04T05:00:32.961Z,54.87
2023-03-04T05:02:59.949Z,49.30
2023-03-04T05:05:26.545Z,44.40
2023-03-04T05:07:53.154Z,42.90
2023-03-04T05:10:19.746Z,42.17
2023-03-04T05:12:46.622Z,42.20
2023-03-04T05:15:13.184Z,49.00
2023-03-04T05:17:39.901Z,42.70
2023-03-04T05:20:07.359Z,44.33
2023-03-04T05:22:33.998Z,42.80
2023-03-04T05:25:00.520Z,43.30
2023-03-04T05:27:27.015Z,42.20
2023-03-04T05:29:55.491Z,34.50
2023-03-04T05:32:22.182Z,56.20
2023-03-04T05:34:48.943Z,31.63
2023-03-04T05:37:15.438Z,42.60
2023-03-04T05:39:42.075Z,36.03
2023-03-04T05:42:08.731Z,43.07
2023-03-04T05:44:35.340Z,31.50
2023-03-04T05:47:01.889Z,37.37
2023-03-04T05:49:28.370Z,32.23
2023-03-04T05:51:54.850Z,34.60
2023-03-04T05:54:21.724Z,35.00
2023-03-04T05:56:48.225Z,39.23
2023-03-04T05:59:20.267Z,37.73
2023-03-04T06:01:47.485Z,30.93
2023-03-04T06:04:14.155Z,27.50
2023-03-04T06:06:40.936Z,33.37
2023-03-04T06:09:07.389Z,42.53
2023-03-04T06:11:36.230Z,46.50
2023-03-04T06:14:03.056Z,29.23
2023-03-04T06:16:29.766Z,32.87
2023-03-04T06:18:56.533Z,25.23
2023-03-04T06:21:23.265Z,30.43
2023-03-04T06:23:49.891Z,29.97
2023-03-04T06:26:17.484Z,29.97
2023-03-04T06:28:44.621Z,26.07
2023-03-04T06:31:11.278Z,29.10
2023-03-04T06:33:37.987Z,24.17
2023-03-04T06:36:04.650Z,45.13
2023-03-04T06:38:31.107Z,27.87
2023-03-04T06:41:05.441Z,31.60
2023-03-04T06:43:31.953Z,22.93
2023-03-04T06:45:58.461Z,30.27
2023-03-04T06:48:24.973Z,29.80
2023-03-04T06:50:51.508Z,33.13
2023-03-04T06:53:18.007Z,30.00
2023-03-04T06:55:44.575Z,29.23
2023-03-04T06:58:11.082Z,44.13
2023-03-04T07:00:37.611Z,26.67
2023-03-04T07:03:04.129Z,31.57
2023-03-04T07:05:30.837Z,29.43
2023-03-04T07:07:57.546Z,22.20
2023-03-04T07:10:24.038Z,21.43
2023-03-04T07:12:50.506Z,18.37
2023-03-04T07:15:16.979Z,37.33
2023-03-04T07:17:43.564Z,13.63
2023-03-04T07:20:10.597Z,20.03
2023-03-04T07:22:37.201Z,23.87
2023-03-04T07:25:04.263Z,25.33
2023-03-04T07:27:30.824Z,16.07
2023-03-04T07:29:57.492Z,15.07
2023-03-04T07:32:24.189Z,20.73
2023-03-04T07:34:51.212Z,34.60
2023-03-04T07:37:18.106Z,25.63
2023-03-04T07:39:44.861Z,23.97
2023-03-04T07:42:11.410Z,18.53
2023-03-04T07:44:41.057Z,18.63
2023-03-04T07:47:07.696Z,37.17
2023-03-04T07:49:34.163Z,37.80
2023-03-04T07:52:03.646Z,23.30
2023-03-04T07:54:30.257Z,19.87
2023-03-04T07:56:56.836Z,28.47
2023-03-04T07:59:23.338Z,25.97
2023-03-04T08:01:49.830Z,33.80
2023-03-04T08:04:16.385Z,20.60
2023-03-04T08:06:43.055Z,35.77
2023-03-04T08:09:11.405Z,25.40
2023-03-04T08:11:38.366Z,21.63
2023-03-04T08:14:05.099Z,31.03
2023-03-04T08:16:31.685Z,29.40
2023-03-04T08:18:59.557Z,24.67
2023-03-04T08:21:26.650Z,21.27
2023-03-04T08:23:53.826Z,21.50
2023-03-04T08:26:20.337Z,21.50
2023-03-04T08:28:46.858Z,32.87
2023-03-04T08:31:14.377Z,20.53
2023-03-04T08:33:41.142Z,32.33
2023-03-04T08:36:08.166Z,21.63
2023-03-04T08:38:35.220Z,23.57
2023-03-04T08:41:03.789Z,22.73
2023-03-04T08:43:30.428Z,15.40
2023-03-04T08:45:57.020Z,11.47
2023-03-04T08:48:23.637Z,14.83
2023-03-04T08:50:50.084Z,15.23
2023-03-04T08:53:17.729Z,28.40
2023-03-04T08:55:44.510Z,14.53
2023-03-04T08:58:11.202Z,19.17
2023-03-04T09:00:39.681Z,24.20
2023-03-04T09:03:06.418Z,18.70
2023-03-04T09:05:33.055Z,16.60
2023-03-04T09:07:59.633Z,22.90
2023-03-04T09:10:26.152Z,22.50
2023-03-04T09:12:52.708Z,26.77
2023-03-04T09:15:19.592Z,17.83
2023-03-04T09:17:46.123Z,17.07
2023-03-04T09:20:13.401Z,12.67
2023-03-04T09:22:40.636Z,9.23
2023-03-04T09:25:12.086Z,13.90
2023-03-04T09:27:39.458Z,13.00
2023-03-04T09:30:06.305Z,18.40
2023-03-04T09:32:33.092Z,10.57
2023-03-04T09:34:59.671Z,24.90
2023-03-04T09:37:26.218Z,23.00
2023-03-04T09:39:52.668Z,14.83
2023-03-04T09:42:25.630Z,13.20
2023-03-04T09:44:53.470Z,25.40
2023-03-04T09:47:20.508Z,11.50
2023-03-04T09:49:54.929Z,8.73
2023-03-04T09:52:21.550Z,19.87
2023-03-04T09:55:01.392Z,15.10
2023-03-04T09:57:38.851Z,18.03
2023-03-04T10:00:25.359Z,6.40
2023-03-04T10:03:04.195Z,5.23
2023-03-04T10:05:32.281Z,9.63
2023-03-04T10:08:00.751Z,9.57
2023-03-04T10:10:30.544Z,10.83
2023-03-04T10:12:57.890Z,16.57
2023-03-04T10:15:27.343Z,12.33
2023-03-04T10:17:57.367Z,10.60
2023-03-04T10:20:25.093Z,10.50
2023-03-04T10:22:52.954Z,19.63
2023-03-04T10:25:39.844Z,16.90
2023-03-04T10:28:11.310Z,8.63
2023-03-04T10:30:46.839Z,9.47
2023-03-04T10:33:17.577Z,10.97
2023-03-04T10:35:45.655Z,12.53
2023-03-04T10:38:13.195Z,9.90
2023-03-04T10:40:40.640Z,12.03
2023-03-04T10:43:13.998Z,9.90
2023-03-04T10:45:40.577Z,8.57
2023-03-04T10:48:17.429Z,13.50
2023-03-04T10:50:44.025Z,14.23
2023-03-04T10:53:23.134Z,5.37
2023-03-04T10:55:49.819Z,17.47
2023-03-04T10:58:19.228Z,16.83
2023-03-04T11:00:50.007Z,9.97
2023-03-04T11:03:16.686Z,13.93
2023-03-04T11:05:43.320Z,17.70
2023-03-04T11:08:18.156Z,15.60
2023-03-04T11:10:45.239Z,13.57
2023-03-04T11:13:11.807Z,13.53
2023-03-04T11:15:58.374Z,9.90
2023-03-04T11:18:40.737Z,8.83
2023-03-04T11:21:08.066Z,6.57
2023-03-04T11:23:40.020Z,6.37
2023-03-04T11:26:10.527Z,10.83
2023-03-04T11:28:36.959Z,10.23
2023-03-04T11:31:06.226Z,7.73
2023-03-04T11:33:42.287Z,9.67
2023-03-04T11:36:11.890Z,4.47
2023-03-04T11:38:40.926Z,9.20
2023-03-04T11:41:10.433Z,8.57
2023-03-04T11:43:38.153Z,5.97
2023-03-04T11:46:23.567Z,8.37
2023-03-04T11:48:53.874Z,6.53
2023-03-04T11:51:26.698Z,9.43
2023-03-04T11:53:56.413Z,12.43
2023-03-04T11:56:30.025Z,12.40
2023-03-04T11:59:02.804Z,8.23
2023-03-04T12:01:32.389Z,3.50
2023-03-04T12:04:12.139Z,5.40
2023-03-04T12:06:44.717Z,5.20
2023-03-04T12:09:14.316Z,2.73
2023-03-04T12:12:00.316Z,9.00
2023-03-04T12:14:54.191Z,4.73
2023-03-04T12:17:20.718Z,7.27
2023-03-04T12:19:53.495Z,8.63
2023-03-04T12:22:20.295Z,8.20
2023-03-04T12:25:03.435Z,7.60
2023-03-04T12:27:49.002Z,14.20
2023-03-04T12:30:35.752Z,14.70
2023-03-04T12:33:12.717Z,6.53
2023-03-04T12:35:46.622Z,11.03
2023-03-04T12:38:34.333Z,31.30
2023-03-04T12:41:06.913Z,36.27
2023-03-04T12:43:41.349Z,14.73
2023-03-04T12:46:15.556Z,22.90
2023-03-04T12:48:53.387Z,14.80
2023-03-04T12:51:32.658Z,6.20
2023-03-04T12:54:17.512Z,13.07
2023-03-04T12:56:50.530Z,39.20
2023-03-04T12:59:19.116Z,12.30
2023-03-04T13:01:45.546Z,8.23
2023-03-04T13:04:17.960Z,5.87
2023-03-04T13:06:47.754Z,6.00
2023-03-04T13:09:26.495Z,8.87
2023-03-04T13:12:01.590Z,7.13
2023-03-04T13:14:28.926Z,7.20
2023-03-04T13:16:57.207Z,6.97
2023-03-04T13:19:42.901Z,8.67
2023-03-04T13:22:26.804Z,3.83
2023-03-04T13:24:53.565Z,9.00
2023-03-04T13:27:38.794Z,7.50
2023-03-04T13:30:25.482Z,17.33
2023-03-04T13:32:52.073Z,9.60
2023-03-04T13:35:37.557Z,6.93
2023-03-04T13:38:20.094Z,9.73
2023-03-04T13:41:06.652Z,7.73
2023-03-04T13:43:46.578Z,15.03
2023-03-04T13:46:19.473Z,6.03
2023-03-04T13:48:52.242Z,7.50
2023-03-04T13:51:28.826Z,5.23
2023-03-04T13:53:56.173Z,13.13
2023-03-04T13:56:32.019Z,14.37
2023-03-04T13:59:08.056Z,6.10
2023-03-04T14:01:41.030Z,9.90
2023-03-04T14:04:30.841Z,10.37
2023-03-04T14:06:58.531Z,8.60
2023-03-04T14:09:29.338Z,9.63
2023-03-04T14:11:57.463Z,6.10
2023-03-04T14:14:28.828Z,13.50
2023-03-04T14:17:00.398Z,8.37
2023-03-04T14:19:43.689Z,10.70
2023-03-04T14:22:20.949Z,5.40
2023-03-04T14:25:08.041Z,4.43
2023-03-04T14:27:36.879Z,6.60
2023-03-04T14:30:05.863Z,12.80
2023-03-04T14:32:32.768Z,6.07
2023-03-04T14:35:03.570Z,4.40
2023-03-04T14:37:34.832Z,6.03
2023-03-04T14:40:02.142Z,2.60
2023-03-04T14:42:33.542Z,6.53
2023-03-04T14:45:00.832Z,6.47
2023-03-04T14:47:36.684Z,3.17
2023-03-04T14:50:08.048Z,12.60
2023-03-04T14:52:45.197Z,8.40
2023-03-04T14:55:15.004Z,3.73
2023-03-04T14:57:42.556Z,3.17
2023-03-04T15:00:18.434Z,6.00
2023-03-04T15:02:48.331Z,3.63
2023-03-04T15:05:25.860Z,7.33
2023-03-04T15:07:57.499Z,6.53
2023-03-04T15:10:26.764Z,13.60
2023-03-04T15:12:54.865Z,6.87
2023-03-04T15:15:33.673Z,9.63
2023-03-04T15:18:14.162Z,4.87
2023-03-04T15:20:41.100Z,3.97
2023-03-04T15:23:08.383Z,8.60
2023-03-04T15:25:35.492Z,10.70
2023-03-04T15:28:03.034Z,7.90
2023-03-04T15:30:31.206Z,5.57
2023-03-04T15:32:58.683Z,10.40
2023-03-04T15:35:27.391Z,14.27
2023-03-04T15:37:55.623Z,9.83
2023-03-04T15:40:48.882Z,6.60
2023-03-04T15:43:16.590Z,11.03
2023-03-04T15:45:44.042Z,9.77
2023-03-04T15:48:15.438Z,6.80
2023-03-04T15:50:43.620Z,13.07
2023-03-04T15:53:26.510Z,9.00
2023-03-04T15:55:53.377Z,7.67
2023-03-04T15:58:20.425Z,8.30
2023-03-04T16:00:47.064Z,9.83
2023-03-04T16:03:14.937Z,10.83
2023-03-04T16:05:42.130Z,14.20
2023-03-04T16:08:10.349Z,10.17
2023-03-04T16:10:36.956Z,9.27
2023-03-04T16:13:03.908Z,13.37
2023-03-04T16:15:30.607Z,11.63
2023-03-04T16:17:57.421Z,10.63
2023-03-04T16:20:25.287Z,11.63
2023-03-04T16:22:54.768Z,10.10
2023-03-04T16:25:22.149Z,13.50
2023-03-04T16:27:50.517Z,9.63
2023-03-04T16:30:18.617Z,14.23
2023-03-04T16:32:45.267Z,12.77
2023-03-04T16:35:12.400Z,12.73
2023-03-04T16:37:39.284Z,9.63
2023-03-04T16:40:06.797Z,10.73
2023-03-04T16:42:33.670Z,16.50
2023-03-04T16:45:00.431Z,19.87
2023-03-04T16:47:27.997Z,15.30
2023-03-04T16:49:55.197Z,10.30
2023-03-04T16:52:22.008Z,12.10
2023-03-04T16:54:48.703Z,15.93
2023-03-04T16:57:15.416Z,15.97
2023-03-04T16:59:41.976Z,15.33
2023-03-04T17:02:13.510Z,9.80
2023-03-04T17:04:40.070Z,9.83
2023-03-04T17:07:06.749Z,8.97
2023-03-04T17:09:33.472Z,18.30
2023-03-04T17:12:00.232Z,15.47
2023-03-04T17:14:26.882Z,11.33
2023-03-04T17:16:53.586Z,15.53
2023-03-04T17:19:20.139Z,13.37
2023-03-04T17:21:46.747Z,14.60
2023-03-04T17:24:13.499Z,13.47
2023-03-04T17:26:41.679Z,13.33
2023-03-04T17:29:08.641Z,12.60
2023-03-04T17:31:36.080Z,16.27
2023-03-04T17:34:02.826Z,30.53
2023-03-04T17:36:29.404Z,17.90
2023-03-04T17:38:55.995Z,32.30
2023-03-04T17:41:22.723Z,45.20
2023-03-04T17:43:50.187Z,32.13
2023-03-04T17:46:18.113Z,16.37
2023-03-04T17:48:44.895Z,20.90
2023-03-04T17:51:11.813Z,27.20
2023-03-04T17:53:38.906Z,29.37
2023-03-04T17:56:06.587Z,26.93
2023-03-04T17:58:34.356Z,30.07
2023-03-04T18:01:21.392Z,54.67
2023-03-04T18:03:48.438Z,13.77
2023-03-04T18:06:15.204Z,19.90
2023-03-04T18:08:41.920Z,17.33
2023-03-04T18:11:09.168Z,16.50
2023-03-04T18:13:37.767Z,14.57
2023-03-04T18:16:05.045Z,20.20
2023-03-04T18:18:32.050Z,23.97
2023-03-04T18:20:59.475Z,13.47
2023-03-04T18:23:26.906Z,13.70
2023-03-04T18:25:53.692Z,11.00
2023-03-04T18:28:20.456Z,16.73
2023-03-04T18:30:46.997Z,10.97
2023-03-04T18:33:13.700Z,12.30
2023-03-04T18:35:40.385Z,14.10
2023-03-04T18:38:07.198Z,11.20
2023-03-04T18:40:33.787Z,6.73
2023-03-04T18:43:00.734Z,12.83
2023-03-04T18:45:27.417Z,20.83
2023-03-04T18:47:54.319Z,7.97
2023-03-04T18:50:24.865Z,13.10
2023-03-04T18:52:54.414Z,12.33
2023-03-04T18:55:21.482Z,79.33
2023-03-04T18:57:51.227Z,43.33
2023-03-04T19:00:22.904Z,10.80
2023-03-04T19:02:52.212Z,223.10
2023-03-04T19:05:29.183Z,36.40
2023-03-04T19:07:56.082Z,6.50
2023-03-04T19:10:23.866Z,19.70
2023-03-04T19:12:50.518Z,16.20
2023-03-04T19:15:18.224Z,4.20
2023-03-04T19:17:47.904Z,12.73
2023-03-04T19:20:15.108Z,7.03
2023-03-04T19:22:42.188Z,11.57
2023-03-04T19:25:09.135Z,9.33
2023-03-04T19:27:36.096Z,23.97
2023-03-04T19:30:03.203Z,6.57
2023-03-04T19:32:29.869Z,7.03
2023-03-04T19:34:56.483Z,15.43
2023-03-04T19:37:23.041Z,18.53
2023-03-04T19:39:50.336Z,7.27
2023-03-04T19:42:17.148Z,9.63
2023-03-04T19:44:44.981Z,7.80
2023-03-04T19:47:11.942Z,13.50
2023-03-04T19:49:38.652Z,10.13
2023-03-04T19:52:05.447Z,15.57
2023-03-04T19:54:32.127Z,4.43
2023-03-04T19:56:58.980Z,7.20
2023-03-04T19:59:25.558Z,5.30
2023-03-04T20:01:52.521Z,8.27
2023-03-04T20:04:21.046Z,8.50
2023-03-04T20:06:48.816Z,10.03
2023-03-04T20:09:16.596Z,8.40
2023-03-04T20:11:56.529Z,7.93
2023-03-04T20:14:23.714Z,13.60
2023-03-04T20:16:50.375Z,4.27
2023-03-04T20:19:17.008Z,2.50
2023-03-04T20:21:43.613Z,9.17
2023-03-04T20:24:10.444Z,10.90
2023-03-04T20:26:39.610Z,10.70
2023-03-04T20:29:06.516Z,5.17
2023-03-04T20:31:37.400Z,6.23
2023-03-04T20:34:03.939Z,1.53
2023-03-04T20:36:30.719Z,8.47
2023-03-04T20:39:02.312Z,7.87
2023-03-04T20:41:31.323Z,2.30
2023-03-04T20:43:58.007Z,6.20
2023-03-04T20:46:26.629Z,4.83
2023-03-04T20:48:53.690Z,4.87
2023-03-04T20:51:20.355Z,6.03
2023-03-04T20:53:47.311Z,7.77
2023-03-04T20:56:14.001Z,6.70
2023-03-04T20:58:40.680Z,7.80
2023-03-04T21:01:07.321Z,4.60
2023-03-04T21:03:34.041Z,8.03
2023-03-04T21:06:04.834Z,11.73
2023-03-04T21:08:31.406Z,5.63
2023-03-04T21:10:57.962Z,6.93
2023-03-04T21:13:26.880Z,7.97
2023-03-04T21:15:53.818Z,16.50
2023-03-04T21:18:20.597Z,15.10
2023-03-04T21:20:48.469Z,8.03
2023-03-04T21:23:15.249Z,14.13
2023-03-04T21:25:42.127Z,7.17
2023-03-04T21:28:08.835Z,4.27
2023-03-04T21:30:35.813Z,8.73
2023-03-04T21:33:04.435Z,7.73
2023-03-04T21:35:33.938Z,6.73
2023-03-04T21:38:00.716Z,6.53
2023-03-04T21:40:27.318Z,12.13
2023-03-04T21:42:53.908Z,8.40
2023-03-04T21:45:20.568Z,11.33
2023-03-04T21:47:49.399Z,8.73
2023-03-04T21:50:16.425Z,8.40
2023-03-04T21:52:43.044Z,9.13
2023-03-04T21:55:09.797Z,2.83
2023-03-04T21:57:36.405Z,10.97
2023-03-04T22:00:04.854Z,9.80
2023-03-04T22:02:38.375Z,13.10
2023-03-04T22:05:05.477Z,17.53
2023-03-04T22:07:32.191Z,13.03
2023-03-04T22:09:59.526Z,7.43
2023-03-04T22:12:26.065Z,8.20
2023-03-04T22:14:52.669Z,11.47
2023-03-04T22:17:19.491Z,11.70
2023-03-04T22:19:46.134Z,8.93
2023-03-04T22:22:12.920Z,16.57
2023-03-04T22:24:39.424Z,13.30
2023-03-04T22:27:06.160Z,11.40
2023-03-04T22:29:32.734Z,13.17
2023-03-04T22:31:59.556Z,9.23
2023-03-04T22:34:26.169Z,25.67
2023-03-04T22:36:52.822Z,12.50
2023-03-04T22:39:19.635Z,16.00
2023-03-04T22:41:46.342Z,8.73
2023-03-04T22:44:13.999Z,11.53
2023-03-04T22:46:40.820Z,17.43
2023-03-04T22:49:09.920Z,22.33
2023-03-04T22:51:37.096Z,23.07
2023-03-04T22:54:03.792Z,15.90
2023-03-04T22:56:30.274Z,17.33
2023-03-04T22:58:57.084Z,21.53
2023-03-04T23:01:24.228Z,17.67
2023-03-04T23:03:51.147Z,22.43
2023-03-04T23:06:19.206Z,13.30
2023-03-04T23:08:46.726Z,12.40
2023-03-04T23:11:35.260Z,12.03
2023-03-04T23:14:06.473Z,12.57
2023-03-04T23:16:36.928Z,13.73
2023-03-04T23:19:04.667Z,9.27
2023-03-04T23:21:34.104Z,5.53
2023-03-04T23:24:05.690Z,11.30
2023-03-04T23:26:34.038Z,11.40
2023-03-04T23:29:01.547Z,6.20
2023-03-04T23:31:28.907Z,4.60
2023-03-04T23:33:58.569Z,13.00
2023-03-04T23:36:29.156Z,12.93
2023-03-04T23:38:55.885Z,14.20
2023-03-04T23:41:23.803Z,6.13
2023-03-04T23:43:51.845Z,12.33
2023-03-04T23:46:18.609Z,3.70
2023-03-04T23:48:48.264Z,11.30
2023-03-04T23:51:15.953Z,6.20
2023-03-04T23:53:43.391Z,8.97
2023-03-04T23:56:11.257Z,8.80
2023-03-04T23:58:37.978Z,18.03
